Terminal Aerodrome Forecast
Issued by NWS

Home | Current Version | Previous Version | Text Only | Print | Product List | Glossary On
Versions: 1 2 3 4 5 6 7 8 9 10 11 12 13 14 15 16 17
000
FTUS43 KFGF 191900 AAA
TAFBJI
TAF AMD
KBJI 191916Z 1919/2018 29008KT P6SM VCSH OVC014
      TEMPO 1919/1922 4SM -RA BR OVC008
     FM192200 29013G20KT P6SM VCSH OVC025
     FM200200 29013KT P6SM OVC020
     FM201300 30014G21KT P6SM OVC020=

USA.gov is the U.S. government's official web portal to all federal, state and local government web resources and services.